sensor_id;sensor_type;location;lat;lon;timestamp;pressure;altitude;pressure_sealevel;temperature;humidity
61345;BME280;47216;42.656;23.232;2023-06-10T00:01:26;93540.47;;;18.41;79.96
61345;BME280;47216;42.656;23.232;2023-06-10T00:03:53;93547.94;;;18.39;79.63
61345;BME280;47216;42.656;23.232;2023-06-10T00:06:20;93554.75;;;18.40;79.46
61345;BME280;47216;42.656;23.232;2023-06-10T00:08:51;93547.47;;;18.46;79.08
61345;BME280;47216;42.656;23.232;2023-06-10T00:11:17;93553.22;;;18.39;78.92
61345;BME280;47216;42.656;23.232;2023-06-10T00:13:44;93554.41;;;18.33;78.98
61345;BME280;47216;42.656;23.232;2023-06-10T00:16:11;93560.56;;;18.20;78.84
61345;BME280;47216;42.656;23.232;2023-06-10T00:18:38;93554.38;;;18.24;79.11
61345;BME280;47216;42.656;23.232;2023-06-10T00:21:05;93555.03;;;18.30;79.14
61345;BME280;47216;42.656;23.232;2023-06-10T00:23:31;93542.28;;;18.32;79.00
61345;BME280;47216;42.656;23.232;2023-06-10T00:26:05;93546.63;;;18.28;78.52
61345;BME280;47216;42.656;23.232;2023-06-10T00:28:31;93549.28;;;18.28;78.66
61345;BME280;47216;42.656;23.232;2023-06-10T00:30:58;93543.81;;;18.24;78.96
61345;BME280;47216;42.656;23.232;2023-06-10T00:33:25;93541.47;;;18.23;78.87
61345;BME280;47216;42.656;23.232;2023-06-10T00:35:52;93549.38;;;18.23;78.74
61345;BME280;47216;42.656;23.232;2023-06-10T00:38:19;93546.72;;;18.14;78.82
61345;BME280;47216;42.656;23.232;2023-06-10T00:40:45;93538.13;;;18.09;78.97
61345;BME280;47216;42.656;23.232;2023-06-10T00:43:14;93548.56;;;18.14;79.02
61345;BME280;47216;42.656;23.232;2023-06-10T00:45:40;93543.41;;;18.09;79.10
61345;BME280;47216;42.656;23.232;2023-06-10T00:48:07;93537.66;;;18.06;79.28
61345;BME280;47216;42.656;23.232;2023-06-10T00:50:35;93544.22;;;18.18;79.36
61345;BME280;47216;42.656;23.232;2023-06-10T00:53:04;93548.03;;;18.25;79.33
61345;BME280;47216;42.656;23.232;2023-06-10T00:55:32;93539.28;;;18.16;78.76
61345;BME280;47216;42.656;23.232;2023-06-10T00:57:59;93547.44;;;18.06;78.84
61345;BME280;47216;42.656;23.232;2023-06-10T01:00:27;93534.31;;;17.92;79.25
61345;BME280;47216;42.656;23.232;2023-06-10T01:02:54;93547.72;;;18.04;79.45
61345;BME280;47216;42.656;23.232;2023-06-10T01:05:21;93551.31;;;18.09;79.41
61345;BME280;47216;42.656;23.232;2023-06-10T01:07:55;93546.94;;;18.04;79.39
61345;BME280;47216;42.656;23.232;2023-06-10T01:10:28;93562.34;;;18.11;79.43
61345;BME280;47216;42.656;23.232;2023-06-10T01:12:59;93561.41;;;18.06;79.49
61345;BME280;47216;42.656;23.232;2023-06-10T01:15:30;93555.94;;;18.03;79.41
61345;BME280;47216;42.656;23.232;2023-06-10T01:17:59;93559.56;;;18.07;79.30
61345;BME280;47216;42.656;23.232;2023-06-10T01:20:27;93561.09;;;18.08;79.23
61345;BME280;47216;42.656;23.232;2023-06-10T01:22:57;93561.09;;;18.08;79.34
61345;BME280;47216;42.656;23.232;2023-06-10T01:25:24;93557.84;;;18.11;79.22
61345;BME280;47216;42.656;23.232;2023-06-10T01:28:12;93548.94;;;17.98;79.36
61345;BME280;47216;42.656;23.232;2023-06-10T01:30:45;93555.75;;;17.99;79.50
61345;BME280;47216;42.656;23.232;2023-06-10T01:33:16;93555.00;;;17.99;79.86
61345;BME280;47216;42.656;23.232;2023-06-10T01:35:44;93552.06;;;18.00;79.67
61345;BME280;47216;42.656;23.232;2023-06-10T01:38:14;93552.53;;;18.02;80.00
61345;BME280;47216;42.656;23.232;2023-06-10T01:40:42;93553.78;;;18.05;79.89
61345;BME280;47216;42.656;23.232;2023-06-10T01:43:09;93553.78;;;18.05;79.71
61345;BME280;47216;42.656;23.232;2023-06-10T01:45:35;93547.56;;;18.01;79.80
61345;BME280;47216;42.656;23.232;2023-06-10T01:48:02;93553.72;;;17.96;79.83
61345;BME280;47216;42.656;23.232;2023-06-10T01:50:29;93540.31;;;17.84;80.33
61345;BME280;47216;42.656;23.232;2023-06-10T01:52:57;93547.31;;;17.89;80.48
61345;BME280;47216;42.656;23.232;2023-06-10T01:55:25;93556.97;;;17.93;80.40
61345;BME280;47216;42.656;23.232;2023-06-10T01:57:52;93544.38;;;17.90;80.47
61345;BME280;47216;42.656;23.232;2023-06-10T02:00:19;93529.38;;;17.77;80.41
61345;BME280;47216;42.656;23.232;2023-06-10T02:02:46;93531.06;;;17.73;80.72
61345;BME280;47216;42.656;23.232;2023-06-10T02:05:12;93539.84;;;17.82;80.92
61345;BME280;47216;42.656;23.232;2023-06-10T02:07:39;93533.94;;;17.85;80.87
61345;BME280;47216;42.656;23.232;2023-06-10T02:10:07;93523.22;;;17.81;81.02
61345;BME280;47216;42.656;23.232;2023-06-10T02:12:36;93527.19;;;17.79;80.81
61345;BME280;47216;42.656;23.232;2023-06-10T02:15:03;93525.28;;;17.71;81.26
61345;BME280;47216;42.656;23.232;2023-06-10T02:17:30;93522.41;;;17.58;81.90
61345;BME280;47216;42.656;23.232;2023-06-10T02:19:58;93521.56;;;17.49;82.27
61345;BME280;47216;42.656;23.232;2023-06-10T02:22:25;93498.19;;;17.34;82.42
61345;BME280;47216;42.656;23.232;2023-06-10T02:24:52;93522.19;;;17.32;83.00
61345;BME280;47216;42.656;23.232;2023-06-10T02:27:18;93522.88;;;17.38;83.31
61345;BME280;47216;42.656;23.232;2023-06-10T02:29:47;93520.88;;;17.43;83.06
61345;BME280;47216;42.656;23.232;2023-06-10T02:32:14;93517.97;;;17.45;82.89
61345;BME280;47216;42.656;23.232;2023-06-10T02:34:41;93516.88;;;17.46;82.81
61345;BME280;47216;42.656;23.232;2023-06-10T02:37:09;93515.50;;;17.49;82.91
61345;BME280;47216;42.656;23.232;2023-06-10T02:39:35;93507.53;;;17.40;82.72
61345;BME280;47216;42.656;23.232;2023-06-10T02:42:03;93509.84;;;17.41;82.55
61345;BME280;47216;42.656;23.232;2023-06-10T02:44:30;93497.09;;;17.35;82.90
61345;BME280;47216;42.656;23.232;2023-06-10T02:46:59;93504.09;;;17.39;83.17
61345;BME280;47216;42.656;23.232;2023-06-10T02:49:25;93487.81;;;17.37;82.88
61345;BME280;47216;42.656;23.232;2023-06-10T02:51:53;93495.66;;;17.51;82.62
61345;BME280;47216;42.656;23.232;2023-06-10T02:54:22;93490.09;;;17.53;82.55
61345;BME280;47216;42.656;23.232;2023-06-10T02:56:48;93492.31;;;17.59;82.38
61345;BME280;47216;42.656;23.232;2023-06-10T02:59:15;93500.09;;;17.64;82.26
61345;BME280;47216;42.656;23.232;2023-06-10T03:01:43;93493.78;;;17.66;81.80
61345;BME280;47216;42.656;23.232;2023-06-10T03:04:11;93495.50;;;17.70;82.02
61345;BME280;47216;42.656;23.232;2023-06-10T03:06:39;93501.56;;;17.71;81.70
61345;BME280;47216;42.656;23.232;2023-06-10T03:09:06;93516.41;;;17.67;81.84
61345;BME280;47216;42.656;23.232;2023-06-10T03:11:33;93512.31;;;17.60;81.88
61345;BME280;47216;42.656;23.232;2023-06-10T03:14:00;93514.66;;;17.62;82.15
61345;BME280;47216;42.656;23.232;2023-06-10T03:16:27;93518.56;;;17.64;82.39
61345;BME280;47216;42.656;23.232;2023-06-10T03:18:55;93515.94;;;17.64;82.22
61345;BME280;47216;42.656;23.232;2023-06-10T03:21:23;93513.91;;;17.61;82.15
61345;BME280;47216;42.656;23.232;2023-06-10T03:23:51;93502.59;;;17.61;82.26
61345;BME280;47216;42.656;23.232;2023-06-10T03:26:17;93517.03;;;17.63;82.53
61345;BME280;47216;42.656;23.232;2023-06-10T03:28:46;93524.31;;;17.67;82.58
61345;BME280;47216;42.656;23.232;2023-06-10T03:31:13;93525.78;;;17.73;82.24
61345;BME280;47216;42.656;23.232;2023-06-10T03:33:42;93509.34;;;17.76;82.35
61345;BME280;47216;42.656;23.232;2023-06-10T03:36:08;93529.03;;;17.92;82.12
61345;BME280;47216;42.656;23.232;2023-06-10T03:38:37;93521.59;;;17.94;81.65
61345;BME280;47216;42.656;23.232;2023-06-10T03:41:03;93526.25;;;17.97;81.17
61345;BME280;47216;42.656;23.232;2023-06-10T03:43:30;93534.84;;;18.03;81.07
61345;BME280;47216;42.656;23.232;2023-06-10T03:45:57;93531.13;;;18.04;80.94
61345;BME280;47216;42.656;23.232;2023-06-10T03:48:24;93529.72;;;18.06;80.83
61345;BME280;47216;42.656;23.232;2023-06-10T03:50:51;93529.44;;;18.08;80.66
61345;BME280;47216;42.656;23.232;2023-06-10T03:53:18;93525.41;;;18.11;80.76
61345;BME280;47216;42.656;23.232;2023-06-10T03:55:46;93523.91;;;18.18;80.71
61345;BME280;47216;42.656;23.232;2023-06-10T03:58:13;93518.81;;;18.22;80.37
61345;BME280;47216;42.656;23.232;2023-06-10T04:00:40;93520.34;;;18.23;80.27
61345;BME280;47216;42.656;23.232;2023-06-10T04:03:08;93513.81;;;18.20;80.30
61345;BME280;47216;42.656;23.232;2023-06-10T04:05:40;93522.41;;;18.26;79.85
61345;BME280;47216;42.656;23.232;2023-06-10T04:08:07;93520.81;;;18.25;79.95
61345;BME280;47216;42.656;23.232;2023-06-10T04:10:34;93520.06;;;18.24;79.72
61345;BME280;47216;42.656;23.232;2023-06-10T04:13:03;93527.97;;;18.24;80.04
61345;BME280;47216;42.656;23.232;2023-06-10T04:15:30;93523.94;;;18.27;79.81
61345;BME280;47216;42.656;23.232;2023-06-10T04:17:58;93514.00;;;18.24;79.63
61345;BME280;47216;42.656;23.232;2023-06-10T04:20:26;93523.34;;;18.30;79.83
61345;BME280;47216;42.656;23.232;2023-06-10T04:22:53;93522.75;;;18.33;79.72
61345;BME280;47216;42.656;23.232;2023-06-10T04:25:20;93530.38;;;18.43;79.77
61345;BME280;47216;42.656;23.232;2023-06-10T04:27:47;93525.59;;;18.45;79.68
61345;BME280;47216;42.656;23.232;2023-06-10T04:30:16;93526.19;;;18.42;79.77
61345;BME280;47216;42.656;23.232;2023-06-10T04:32:43;93530.91;;;18.54;79.94
61345;BME280;47216;42.656;23.232;2023-06-10T04:35:11;93526.72;;;18.53;79.73
61345;BME280;47216;42.656;23.232;2023-06-10T04:37:38;93538.41;;;18.61;80.16
61345;BME280;47216;42.656;23.232;2023-06-10T04:40:06;93534.66;;;18.62;79.85
61345;BME280;47216;42.656;23.232;2023-06-10T04:42:33;93534.06;;;18.65;80.04
61345;BME280;47216;42.656;23.232;2023-06-10T04:45:00;93540.91;;;18.66;79.77
61345;BME280;47216;42.656;23.232;2023-06-10T04:47:28;93527.84;;;18.61;79.92
61345;BME280;47216;42.656;23.232;2023-06-10T04:49:58;93530.94;;;18.63;79.82
61345;BME280;47216;42.656;23.232;2023-06-10T04:52:25;93538.88;;;18.63;79.59
61345;BME280;47216;42.656;23.232;2023-06-10T04:54:52;93534.97;;;18.60;79.77
61345;BME280;47216;42.656;23.232;2023-06-10T04:57:19;93533.59;;;18.63;79.48
61345;BME280;47216;42.656;23.232;2023-06-10T04:59:46;93535.91;;;18.64;79.78
61345;BME280;47216;42.656;23.232;2023-06-10T05:02:13;93533.44;;;18.68;79.77
61345;BME280;47216;42.656;23.232;2023-06-10T05:04:41;93525.38;;;18.73;80.16
61345;BME280;47216;42.656;23.232;2023-06-10T05:07:08;93530.19;;;18.71;80.50
61345;BME280;47216;42.656;23.232;2023-06-10T05:09:35;93530.81;;;18.68;80.18
61345;BME280;47216;42.656;23.232;2023-06-10T05:12:03;93532.25;;;18.74;80.13
61345;BME280;47216;42.656;23.232;2023-06-10T05:14:30;93534.75;;;18.79;80.36
61345;BME280;47216;42.656;23.232;2023-06-10T05:16:56;93518.44;;;18.77;80.54
61345;BME280;47216;42.656;23.232;2023-06-10T05:19:25;93536.31;;;18.80;80.46
61345;BME280;47216;42.656;23.232;2023-06-10T05:21:54;93529.63;;;18.83;80.38
61345;BME280;47216;42.656;23.232;2023-06-10T05:24:20;93519.88;;;18.92;80.53
61345;BME280;47216;42.656;23.232;2023-06-10T05:26:48;93518.63;;;18.89;79.67
61345;BME280;47216;42.656;23.232;2023-06-10T05:29:15;93529.97;;;18.90;79.49
61345;BME280;47216;42.656;23.232;2023-06-10T05:31:42;93536.53;;;18.93;79.50
61345;BME280;47216;42.656;23.232;2023-06-10T05:34:09;93536.97;;;18.95;79.32
61345;BME280;47216;42.656;23.232;2023-06-10T05:36:36;93541.66;;;18.98;79.33
61345;BME280;47216;42.656;23.232;2023-06-10T05:39:04;93533.72;;;18.98;79.42
61345;BME280;47216;42.656;23.232;2023-06-10T05:41:31;93531.09;;;18.98;79.39
61345;BME280;47216;42.656;23.232;2023-06-10T05:43:58;93541.03;;;19.01;79.48
61345;BME280;47216;42.656;23.232;2023-06-10T05:46:25;93539.16;;;18.93;79.01
61345;BME280;47216;42.656;23.232;2023-06-10T05:48:51;93538.22;;;18.88;79.59
61345;BME280;47216;42.656;23.232;2023-06-10T05:51:18;93544.44;;;18.93;79.57
61345;BME280;47216;42.656;23.232;2023-06-10T05:53:45;93541.47;;;18.94;79.30
61345;BME280;47216;42.656;23.232;2023-06-10T05:56:14;93542.59;;;19.02;79.12
61345;BME280;47216;42.656;23.232;2023-06-10T05:58:41;93540.88;;;18.97;79.65
61345;BME280;47216;42.656;23.232;2023-06-10T06:01:07;93532.94;;;18.88;79.14
61345;BME280;47216;42.656;23.232;2023-06-10T06:03:34;93538.22;;;18.88;79.70
61345;BME280;47216;42.656;23.232;2023-06-10T06:06:02;93531.81;;;18.89;79.36
61345;BME280;47216;42.656;23.232;2023-06-10T06:08:29;93548.00;;;18.97;79.06
61345;BME280;47216;42.656;23.232;2023-06-10T06:10:56;93538.09;;;19.02;79.00
61345;BME280;47216;42.656;23.232;2023-06-10T06:13:24;93540.13;;;19.14;78.60
61345;BME280;47216;42.656;23.232;2023-06-10T06:15:51;93542.31;;;19.21;78.16
61345;BME280;47216;42.656;23.232;2023-06-10T06:18:18;93540.31;;;19.26;77.36
61345;BME280;47216;42.656;23.232;2023-06-10T06:20:44;93534.25;;;19.35;77.40
61345;BME280;47216;42.656;23.232;2023-06-10T06:23:11;93539.22;;;19.45;77.25
61345;BME280;47216;42.656;23.232;2023-06-10T06:25:38;93544.84;;;19.52;77.84
61345;BME280;47216;42.656;23.232;2023-06-10T06:28:05;93543.91;;;19.65;78.11
61345;BME280;47216;42.656;23.232;2023-06-10T06:30:34;93547.22;;;19.71;78.01
61345;BME280;47216;42.656;23.232;2023-06-10T06:33:01;93545.50;;;19.75;77.86
61345;BME280;47216;42.656;23.232;2023-06-10T06:35:30;93538.66;;;19.83;77.42
61345;BME280;47216;42.656;23.232;2023-06-10T06:37:57;93538.03;;;19.86;77.40
61345;BME280;47216;42.656;23.232;2023-06-10T06:40:24;93547.38;;;19.92;77.20
61345;BME280;47216;42.656;23.232;2023-06-10T06:42:51;93541.75;;;19.93;77.32
61345;BME280;47216;42.656;23.232;2023-06-10T06:45:18;93540.63;;;20.03;77.35
61345;BME280;47216;42.656;23.232;2023-06-10T06:47:46;93544.38;;;20.11;77.22
61345;BME280;47216;42.656;23.232;2023-06-10T06:50:13;93527.84;;;20.14;76.98
61345;BME280;47216;42.656;23.232;2023-06-10T06:52:40;93543.72;;;20.23;76.61
61345;BME280;47216;42.656;23.232;2023-06-10T06:55:07;93536.72;;;20.27;76.29
61345;BME280;47216;42.656;23.232;2023-06-10T06:57:34;93532.31;;;20.31;76.18
61345;BME280;47216;42.656;23.232;2023-06-10T07:00:01;93534.84;;;20.36;76.27
61345;BME280;47216;42.656;23.232;2023-06-10T07:02:28;93529.81;;;20.43;75.38
61345;BME280;47216;42.656;23.232;2023-06-10T07:04:58;93534.28;;;20.51;74.04
61345;BME280;47216;42.656;23.232;2023-06-10T07:07:26;93534.94;;;20.57;73.14
61345;BME280;47216;42.656;23.232;2023-06-10T07:09:52;93535.22;;;20.64;70.37
61345;BME280;47216;42.656;23.232;2023-06-10T07:12:19;93527.59;;;20.63;67.31
61345;BME280;47216;42.656;23.232;2023-06-10T07:14:49;93524.13;;;20.71;66.60
61345;BME280;47216;42.656;23.232;2023-06-10T07:17:16;93505.59;;;20.71;66.84
61345;BME280;47216;42.656;23.232;2023-06-10T07:19:43;93522.84;;;20.77;67.99
61345;BME280;47216;42.656;23.232;2023-06-10T07:22:11;93518.47;;;20.81;66.99
61345;BME280;47216;42.656;23.232;2023-06-10T07:24:38;93518.47;;;20.81;65.69
61345;BME280;47216;42.656;23.232;2023-06-10T07:27:05;93517.69;;;20.81;65.87
61345;BME280;47216;42.656;23.232;2023-06-10T07:29:32;93517.38;;;20.82;65.92
61345;BME280;47216;42.656;23.232;2023-06-10T07:32:01;93519.97;;;20.91;66.87
61345;BME280;47216;42.656;23.232;2023-06-10T07:34:27;93519.47;;;20.97;67.19
61345;BME280;47216;42.656;23.232;2023-06-10T07:36:54;93519.56;;;21.10;66.93
61345;BME280;47216;42.656;23.232;2023-06-10T07:39:22;93517.19;;;21.17;65.98
61345;BME280;47216;42.656;23.232;2023-06-10T07:41:49;93510.59;;;21.23;66.22
61345;BME280;47216;42.656;23.232;2023-06-10T07:44:19;93510.53;;;21.32;66.48
61345;BME280;47216;42.656;23.232;2023-06-10T07:46:46;93507.34;;;21.47;66.23
61345;BME280;47216;42.656;23.232;2023-06-10T07:49:13;93517.81;;;21.44;64.39
61345;BME280;47216;42.656;23.232;2023-06-10T07:51:40;93510.75;;;21.48;64.71
61345;BME280;47216;42.656;23.232;2023-06-10T07:54:06;93511.34;;;21.53;65.82
61345;BME280;47216;42.656;23.232;2023-06-10T07:56:35;93509.38;;;21.63;62.75
61345;BME280;47216;42.656;23.232;2023-06-10T07:59:01;93507.53;;;21.63;61.14
61345;BME280;47216;42.656;23.232;2023-06-10T08:01:28;93509.13;;;21.76;62.37
61345;BME280;47216;42.656;23.232;2023-06-10T08:03:56;93486.56;;;21.70;63.59
61345;BME280;47216;42.656;23.232;2023-06-10T08:06:23;93499.75;;;21.79;60.59
61345;BME280;47216;42.656;23.232;2023-06-10T08:08:50;93509.47;;;22.08;61.48
61345;BME280;47216;42.656;23.232;2023-06-10T08:11:17;93505.44;;;22.23;59.34
61345;BME280;47216;42.656;23.232;2023-06-10T08:13:45;93511.75;;;22.31;58.69
61345;BME280;47216;42.656;23.232;2023-06-10T08:16:12;93507.81;;;22.49;59.01
61345;BME280;47216;42.656;23.232;2023-06-10T08:18:39;93501.50;;;22.54;59.36
61345;BME280;47216;42.656;23.232;2023-06-10T08:21:05;93507.59;;;22.54;61.19
61345;BME280;47216;42.656;23.232;2023-06-10T08:23:32;93493.63;;;22.57;59.04
61345;BME280;47216;42.656;23.232;2023-06-10T08:25:59;93497.09;;;22.70;58.67
61345;BME280;47216;42.656;23.232;2023-06-10T08:28:26;93489.66;;;22.63;56.38
61345;BME280;47216;42.656;23.232;2023-06-10T08:30:54;93483.66;;;22.54;57.63
61345;BME280;47216;42.656;23.232;2023-06-10T08:33:21;93493.53;;;22.66;58.27
61345;BME280;47216;42.656;23.232;2023-06-10T08:35:48;93485.22;;;22.80;58.85
61345;BME280;47216;42.656;23.232;2023-06-10T08:38:15;93487.66;;;22.85;59.27
61345;BME280;47216;42.656;23.232;2023-06-10T08:40:42;93480.25;;;23.03;58.68
61345;BME280;47216;42.656;23.232;2023-06-10T08:43:16;93488.31;;;23.19;56.64
61345;BME280;47216;42.656;23.232;2023-06-10T08:45:45;93479.66;;;23.22;55.01
61345;BME280;47216;42.656;23.232;2023-06-10T08:48:17;93483.88;;;23.23;54.73
61345;BME280;47216;42.656;23.232;2023-06-10T08:50:46;93483.66;;;23.28;56.06
61345;BME280;47216;42.656;23.232;2023-06-10T08:53:18;93463.91;;;23.29;54.63
61345;BME280;47216;42.656;23.232;2023-06-10T08:55:49;93460.78;;;23.39;53.32
61345;BME280;47216;42.656;23.232;2023-06-10T08:58:17;93465.44;;;23.42;55.22
61345;BME280;47216;42.656;23.232;2023-06-10T09:00:44;93463.22;;;23.44;55.93
61345;BME280;47216;42.656;23.232;2023-06-10T09:03:11;93457.25;;;23.63;55.42
61345;BME280;47216;42.656;23.232;2023-06-10T09:05:40;93455.41;;;23.64;55.65
61345;BME280;47216;42.656;23.232;2023-06-10T09:08:08;93460.28;;;23.62;54.17
61345;BME280;47216;42.656;23.232;2023-06-10T09:10:35;93458.47;;;23.78;52.55
61345;BME280;47216;42.656;23.232;2023-06-10T09:13:02;93446.94;;;23.74;53.70
61345;BME280;47216;42.656;23.232;2023-06-10T09:15:29;93458.94;;;23.96;55.24
61345;BME280;47216;42.656;23.232;2023-06-10T09:17:56;93461.09;;;24.06;54.64
61345;BME280;47216;42.656;23.232;2023-06-10T09:20:23;93452.59;;;24.17;52.94
61345;BME280;47216;42.656;23.232;2023-06-10T09:22:51;93448.66;;;24.26;52.36
61345;BME280;47216;42.656;23.232;2023-06-10T09:25:18;93458.97;;;24.44;52.80
61345;BME280;47216;42.656;23.232;2023-06-10T09:27:46;93453.50;;;24.52;53.04
61345;BME280;47216;42.656;23.232;2023-06-10T09:30:25;93446.53;;;24.48;52.66
61345;BME280;47216;42.656;23.232;2023-06-10T09:32:53;93447.69;;;24.35;52.44
61345;BME280;47216;42.656;23.232;2023-06-10T09:35:21;93436.69;;;24.20;53.94
61345;BME280;47216;42.656;23.232;2023-06-10T09:37:51;93430.00;;;24.26;52.74
61345;BME280;47216;42.656;23.232;2023-06-10T09:40:19;93443.06;;;24.31;51.37
61345;BME280;47216;42.656;23.232;2023-06-10T09:42:52;93432.31;;;24.28;51.79
61345;BME280;47216;42.656;23.232;2023-06-10T09:45:20;93445.56;;;24.40;51.65
61345;BME280;47216;42.656;23.232;2023-06-10T09:47:50;93439.28;;;24.32;51.54
61345;BME280;47216;42.656;23.232;2023-06-10T09:50:17;93434.38;;;24.35;52.89
61345;BME280;47216;42.656;23.232;2023-06-10T09:52:45;93433.22;;;24.48;52.26
61345;BME280;47216;42.656;23.232;2023-06-10T09:55:14;93422.44;;;24.60;52.98
61345;BME280;47216;42.656;23.232;2023-06-10T09:57:41;93434.06;;;24.68;53.35
61345;BME280;47216;42.656;23.232;2023-06-10T10:00:11;93431.03;;;24.69;51.61
61345;BME280;47216;42.656;23.232;2023-06-10T10:02:44;93434.31;;;24.63;50.56
61345;BME280;47216;42.656;23.232;2023-06-10T10:05:12;93416.25;;;24.56;50.48
61345;BME280;47216;42.656;23.232;2023-06-10T10:07:39;93406.44;;;24.60;51.00
61345;BME280;47216;42.656;23.232;2023-06-10T10:10:07;93399.88;;;24.73;50.68
61345;BME280;47216;42.656;23.232;2023-06-10T10:12:36;93412.41;;;24.89;49.54
61345;BME280;47216;42.656;23.232;2023-06-10T10:15:06;93410.34;;;24.98;49.79
61345;BME280;47216;42.656;23.232;2023-06-10T10:17:34;93400.34;;;24.95;50.31
61345;BME280;47216;42.656;23.232;2023-06-10T10:20:04;93404.69;;;25.19;50.72
61345;BME280;47216;42.656;23.232;2023-06-10T10:22:36;93410.53;;;25.25;49.54
61345;BME280;47216;42.656;23.232;2023-06-10T10:25:10;93401.81;;;25.28;50.22
61345;BME280;47216;42.656;23.232;2023-06-10T10:27:43;93405.19;;;25.44;49.19
61345;BME280;47216;42.656;23.232;2023-06-10T10:30:13;93381.56;;;25.46;48.15
61345;BME280;47216;42.656;23.232;2023-06-10T10:32:52;93402.59;;;25.48;48.38
61345;BME280;47216;42.656;23.232;2023-06-10T10:35:22;93402.66;;;25.51;48.00
61345;BME280;47216;42.656;23.232;2023-06-10T10:37:51;93400.00;;;25.51;48.39
61345;BME280;47216;42.656;23.232;2023-06-10T10:40:19;93396.78;;;25.42;46.67
61345;BME280;47216;42.656;23.232;2023-06-10T10:42:49;93400.97;;;25.24;49.95
61345;BME280;47216;42.656;23.232;2023-06-10T10:45:16;93394.16;;;25.26;49.84
61345;BME280;47216;42.656;23.232;2023-06-10T10:47:45;93391.13;;;25.28;49.29
61345;BME280;47216;42.656;23.232;2023-06-10T10:50:16;93376.66;;;25.29;47.71
61345;BME280;47216;42.656;23.232;2023-06-10T10:52:52;93381.16;;;25.25;48.08
61345;BME280;47216;42.656;23.232;2023-06-10T10:55:19;93375.91;;;25.28;47.57
61345;BME280;47216;42.656;23.232;2023-06-10T10:57:55;93377.44;;;25.29;46.12
61345;BME280;47216;42.656;23.232;2023-06-10T11:00:29;93380.00;;;25.06;46.58
61345;BME280;47216;42.656;23.232;2023-06-10T11:03:05;93369.41;;;25.10;47.21
61345;BME280;47216;42.656;23.232;2023-06-10T11:05:37;93374.53;;;25.19;47.51
61345;BME280;47216;42.656;23.232;2023-06-10T11:08:05;93375.06;;;25.24;47.33
61345;BME280;47216;42.656;23.232;2023-06-10T11:10:34;93369.78;;;25.28;47.60
61345;BME280;47216;42.656;23.232;2023-06-10T11:13:07;93363.66;;;25.27;46.71
61345;BME280;47216;42.656;23.232;2023-06-10T11:15:39;93364.03;;;25.26;47.15
61345;BME280;47216;42.656;23.232;2023-06-10T11:18:10;93351.94;;;25.32;48.35
61345;BME280;47216;42.656;23.232;2023-06-10T11:20:44;93348.72;;;25.42;47.11
61345;BME280;47216;42.656;23.232;2023-06-10T11:23:24;93348.69;;;25.62;46.01
61345;BME280;47216;42.656;23.232;2023-06-10T11:25:51;93346.84;;;25.66;45.12
61345;BME280;47216;42.656;23.232;2023-06-10T11:28:20;93347.84;;;25.57;46.19
61345;BME280;47216;42.656;23.232;2023-06-10T11:30:57;93340.09;;;25.72;45.15
61345;BME280;47216;42.656;23.232;2023-06-10T11:33:24;93329.69;;;25.67;45.46
61345;BME280;47216;42.656;23.232;2023-06-10T11:35:51;93333.19;;;25.71;46.07
61345;BME280;47216;42.656;23.232;2023-06-10T11:38:18;93320.88;;;25.63;45.78
61345;BME280;47216;42.656;23.232;2023-06-10T11:40:46;93332.56;;;25.77;45.82
61345;BME280;47216;42.656;23.232;2023-06-10T11:43:14;93333.44;;;25.85;45.29
61345;BME280;47216;42.656;23.232;2023-06-10T11:45:43;93333.56;;;25.92;45.00
61345;BME280;47216;42.656;23.232;2023-06-10T11:48:10;93330.50;;;25.90;44.86
61345;BME280;47216;42.656;23.232;2023-06-10T11:50:37;93325.97;;;25.94;44.07
61345;BME280;47216;42.656;23.232;2023-06-10T11:53:04;93321.88;;;25.77;43.97
61345;BME280;47216;42.656;23.232;2023-06-10T11:55:49;93330.22;;;25.76;45.21
61345;BME280;47216;42.656;23.232;2023-06-10T11:58:18;93325.19;;;25.71;46.33
61345;BME280;47216;42.656;23.232;2023-06-10T12:00:48;93329.25;;;25.65;45.37
61345;BME280;47216;42.656;23.232;2023-06-10T12:03:15;93325.69;;;25.76;45.55
61345;BME280;47216;42.656;23.232;2023-06-10T12:05:55;93328.47;;;25.84;45.95
61345;BME280;47216;42.656;23.232;2023-06-10T12:08:22;93319.75;;;25.87;45.50
61345;BME280;47216;42.656;23.232;2023-06-10T12:10:49;93335.78;;;25.87;46.10
61345;BME280;47216;42.656;23.232;2023-06-10T12:13:16;93317.50;;;25.89;46.36
61345;BME280;47216;42.656;23.232;2023-06-10T12:15:43;93333.72;;;25.99;45.94
61345;BME280;47216;42.656;23.232;2023-06-10T12:18:17;93320.94;;;25.89;45.41
61345;BME280;47216;42.656;23.232;2023-06-10T12:20:44;93329.03;;;25.93;44.38
61345;BME280;47216;42.656;23.232;2023-06-10T12:23:12;93313.75;;;25.93;46.24
61345;BME280;47216;42.656;23.232;2023-06-10T12:25:39;93316.13;;;25.98;47.49
61345;BME280;47216;42.656;23.232;2023-06-10T12:28:10;93316.13;;;25.98;49.14
61345;BME280;47216;42.656;23.232;2023-06-10T12:30:36;93318.97;;;25.86;46.41
61345;BME280;47216;42.656;23.232;2023-06-10T12:33:03;93318.53;;;25.84;45.66
61345;BME280;47216;42.656;23.232;2023-06-10T12:35:31;93307.38;;;25.78;46.59
61345;BME280;47216;42.656;23.232;2023-06-10T12:38:00;93301.97;;;25.75;47.61
61345;BME280;47216;42.656;23.232;2023-06-10T12:40:29;93306.50;;;25.71;48.54
61345;BME280;47216;42.656;23.232;2023-06-10T12:42:57;93305.31;;;25.68;47.76
61345;BME280;47216;42.656;23.232;2023-06-10T12:45:28;93310.88;;;25.60;47.65
61345;BME280;47216;42.656;23.232;2023-06-10T12:48:04;93291.59;;;25.47;47.85
61345;BME280;47216;42.656;23.232;2023-06-10T12:50:33;93306.66;;;25.58;46.17
61345;BME280;47216;42.656;23.232;2023-06-10T12:53:00;93311.78;;;25.67;46.59
61345;BME280;47216;42.656;23.232;2023-06-10T12:55:27;93310.22;;;25.66;45.11